sensor_id;sensor_type;location;lat;lon;timestamp;P1;durP1;ratioP1;P2;durP2;ratioP2
20445;SDS011;10382;49.140;9.234;2024-03-23T00:55:36;16.40;;;6.37;;
20445;SDS011;10382;49.140;9.234;2024-03-23T00:58:02;7.90;;;5.77;;
20445;SDS011;10382;49.140;9.234;2024-03-23T01:00:29;11.90;;;6.50;;
20445;SDS011;10382;49.140;9.234;2024-03-23T01:02:55;9.57;;;6.10;;
20445;SDS011;10382;49.140;9.234;2024-03-23T01:05:22;10.90;;;6.60;;
20445;SDS011;10382;49.140;9.234;2024-03-23T01:07:48;8.30;;;6.17;;
20445;SDS011;10382;49.140;9.234;2024-03-23T01:10:16;18.63;;;5.93;;
20445;SDS011;10382;49.140;9.234;2024-03-23T01:12:42;6.93;;;5.50;;
20445;SDS011;10382;49.140;9.234;2024-03-23T01:15:09;7.83;;;5.80;;
20445;SDS011;10382;49.140;9.234;2024-03-23T01:17:35;10.90;;;5.50;;
20445;SDS011;10382;49.140;9.234;2024-03-23T01:20:02;8.87;;;6.03;;
20445;SDS011;10382;49.140;9.234;2024-03-23T01:22:28;8.70;;;5.60;;
20445;SDS011;10382;49.140;9.234;2024-03-23T01:24:55;15.20;;;6.83;;
20445;SDS011;10382;49.140;9.234;2024-03-23T01:27:22;10.97;;;5.23;;
20445;SDS011;10382;49.140;9.234;2024-03-23T01:29:50;9.77;;;6.27;;
20445;SDS011;10382;49.140;9.234;2024-03-23T01:32:17;6.90;;;5.57;;
20445;SDS011;10382;49.140;9.234;2024-03-23T01:34:44;4.90;;;4.40;;
20445;SDS011;10382;49.140;9.234;2024-03-23T01:37:10;7.63;;;5.20;;
20445;SDS011;10382;49.140;9.234;2024-03-23T01:39:37;16.40;;;4.90;;
20445;SDS011;10382;49.140;9.234;2024-03-23T01:42:03;6.23;;;5.00;;
20445;SDS011;10382;49.140;9.234;2024-03-23T01:44:32;5.97;;;5.20;;
20445;SDS011;10382;49.140;9.234;2024-03-23T01:46:57;5.40;;;4.00;;
20445;SDS011;10382;49.140;9.234;2024-03-23T01:49:24;20.13;;;5.40;;
20445;SDS011;10382;49.140;9.234;2024-03-23T01:51:51;8.90;;;5.83;;
20445;SDS011;10382;49.140;9.234;2024-03-23T01:54:18;6.80;;;4.57;;
20445;SDS011;10382;49.140;9.234;2024-03-23T01:56:44;7.60;;;4.83;;
20445;SDS011;10382;49.140;9.234;2024-03-23T01:59:11;5.23;;;4.30;;
20445;SDS011;10382;49.140;9.234;2024-03-23T02:01:39;6.57;;;4.83;;
20445;SDS011;10382;49.140;9.234;2024-03-23T02:04:06;7.10;;;4.23;;
20445;SDS011;10382;49.140;9.234;2024-03-23T02:06:34;5.13;;;4.60;;
20445;SDS011;10382;49.140;9.234;2024-03-23T02:09:01;6.37;;;4.63;;
20445;SDS011;10382;49.140;9.234;2024-03-23T02:11:28;5.80;;;4.93;;
20445;SDS011;10382;49.140;9.234;2024-03-23T02:13:55;8.23;;;4.53;;
20445;SDS011;10382;49.140;9.234;2024-03-23T02:16:21;7.00;;;4.23;;
20445;SDS011;10382;49.140;9.234;2024-03-23T02:18:50;12.13;;;5.83;;
20445;SDS011;10382;49.140;9.234;2024-03-23T02:21:15;9.37;;;4.43;;
20445;SDS011;10382;49.140;9.234;2024-03-23T02:23:44;4.33;;;3.90;;
20445;SDS011;10382;49.140;9.234;2024-03-23T02:26:10;5.83;;;4.50;;
20445;SDS011;10382;49.140;9.234;2024-03-23T02:28:37;5.00;;;3.90;;
20445;SDS011;10382;49.140;9.234;2024-03-23T02:31:03;16.43;;;5.70;;
20445;SDS011;10382;49.140;9.234;2024-03-23T02:33:30;4.37;;;3.70;;
20445;SDS011;10382;49.140;9.234;2024-03-23T02:35:57;12.50;;;5.03;;
20445;SDS011;10382;49.140;9.234;2024-03-23T02:38:24;14.07;;;4.40;;
20445;SDS011;10382;49.140;9.234;2024-03-23T02:40:51;10.23;;;5.23;;
20445;SDS011;10382;49.140;9.234;2024-03-23T02:43:18;4.03;;;3.43;;
20445;SDS011;10382;49.140;9.234;2024-03-23T02:45:44;7.03;;;5.40;;
20445;SDS011;10382;49.140;9.234;2024-03-23T02:48:11;5.37;;;4.77;;
20445;SDS011;10382;49.140;9.234;2024-03-23T02:50:37;10.23;;;3.90;;
20445;SDS011;10382;49.140;9.234;2024-03-23T02:53:04;8.83;;;5.13;;
20445;SDS011;10382;49.140;9.234;2024-03-23T02:55:30;27.27;;;5.50;;
20445;SDS011;10382;49.140;9.234;2024-03-23T02:57:58;7.20;;;5.10;;
20445;SDS011;10382;49.140;9.234;2024-03-23T03:00:27;13.73;;;6.30;;
20445;SDS011;10382;49.140;9.234;2024-03-23T03:02:54;6.93;;;4.60;;
20445;SDS011;10382;49.140;9.234;2024-03-23T03:05:20;7.53;;;5.00;;
20445;SDS011;10382;49.140;9.234;2024-03-23T03:07:47;8.00;;;5.00;;
20445;SDS011;10382;49.140;9.234;2024-03-23T03:10:13;8.40;;;5.83;;
20445;SDS011;10382;49.140;9.234;2024-03-23T03:12:41;9.83;;;6.27;;
20445;SDS011;10382;49.140;9.234;2024-03-23T03:15:09;6.07;;;4.93;;
20445;SDS011;10382;49.140;9.234;2024-03-23T03:17:36;6.43;;;4.43;;
20445;SDS011;10382;49.140;9.234;2024-03-23T03:20:01;7.43;;;5.67;;
20445;SDS011;10382;49.140;9.234;2024-03-23T03:22:30;4.97;;;4.10;;
20445;SDS011;10382;49.140;9.234;2024-03-23T03:24:56;11.00;;;4.87;;
20445;SDS011;10382;49.140;9.234;2024-03-23T03:27:22;7.03;;;4.10;;
20445;SDS011;10382;49.140;9.234;2024-03-23T03:29:48;5.70;;;4.93;;
20445;SDS011;10382;49.140;9.234;2024-03-23T03:32:17;9.73;;;4.23;;
20445;SDS011;10382;49.140;9.234;2024-03-23T03:34:43;6.67;;;4.40;;
20445;SDS011;10382;49.140;9.234;2024-03-23T03:37:09;7.57;;;5.23;;
20445;SDS011;10382;49.140;9.234;2024-03-23T03:39:35;14.93;;;5.17;;
20445;SDS011;10382;49.140;9.234;2024-03-23T03:42:02;7.00;;;4.40;;
20445;SDS011;10382;49.140;9.234;2024-03-23T03:44:31;9.93;;;4.60;;
20445;SDS011;10382;49.140;9.234;2024-03-23T03:46:58;6.03;;;5.27;;
20445;SDS011;10382;49.140;9.234;2024-03-23T03:49:26;6.87;;;5.00;;
20445;SDS011;10382;49.140;9.234;2024-03-23T03:51:52;9.63;;;5.10;;
20445;SDS011;10382;49.140;9.234;2024-03-23T03:54:18;6.37;;;5.00;;
20445;SDS011;10382;49.140;9.234;2024-03-23T03:56:45;10.27;;;5.10;;
20445;SDS011;10382;49.140;9.234;2024-03-23T03:59:11;5.60;;;5.03;;
20445;SDS011;10382;49.140;9.234;2024-03-23T04:01:38;18.50;;;5.67;;
20445;SDS011;10382;49.140;9.234;2024-03-23T04:04:04;4.93;;;4.47;;
20445;SDS011;10382;49.140;9.234;2024-03-23T04:06:32;6.10;;;5.23;;
20445;SDS011;10382;49.140;9.234;2024-03-23T04:08:58;9.30;;;5.67;;
20445;SDS011;10382;49.140;9.234;2024-03-23T04:11:25;16.53;;;7.13;;
20445;SDS011;10382;49.140;9.234;2024-03-23T04:13:51;12.03;;;5.63;;
20445;SDS011;10382;49.140;9.234;2024-03-23T04:16:24;9.30;;;5.70;;
20445;SDS011;10382;49.140;9.234;2024-03-23T04:18:51;9.23;;;6.50;;
20445;SDS011;10382;49.140;9.234;2024-03-23T04:21:19;10.03;;;6.73;;
20445;SDS011;10382;49.140;9.234;2024-03-23T04:23:46;13.83;;;7.30;;
20445;SDS011;10382;49.140;9.234;2024-03-23T04:26:13;8.80;;;7.17;;
20445;SDS011;10382;49.140;9.234;2024-03-23T04:28:39;10.80;;;6.57;;
20445;SDS011;10382;49.140;9.234;2024-03-23T04:31:06;13.50;;;7.40;;
20445;SDS011;10382;49.140;9.234;2024-03-23T04:33:32;17.87;;;7.10;;
20445;SDS011;10382;49.140;9.234;2024-03-23T04:35:59;15.60;;;7.10;;
20445;SDS011;10382;49.140;9.234;2024-03-23T04:38:25;11.00;;;8.30;;
20445;SDS011;10382;49.140;9.234;2024-03-23T04:40:56;12.53;;;8.27;;
20445;SDS011;10382;49.140;9.234;2024-03-23T04:43:24;15.73;;;9.57;;
20445;SDS011;10382;49.140;9.234;2024-03-23T04:45:51;14.60;;;9.40;;
20445;SDS011;10382;49.140;9.234;2024-03-23T04:48:19;14.63;;;10.10;;
20445;SDS011;10382;49.140;9.234;2024-03-23T04:50:45;14.17;;;10.03;;
20445;SDS011;10382;49.140;9.234;2024-03-23T04:53:12;17.40;;;10.53;;
20445;SDS011;10382;49.140;9.234;2024-03-23T04:55:39;16.20;;;11.00;;
20445;SDS011;10382;49.140;9.234;2024-03-23T04:58:07;15.20;;;10.97;;
20445;SDS011;10382;49.140;9.234;2024-03-23T05:00:33;11.07;;;9.60;;
20445;SDS011;10382;49.140;9.234;2024-03-23T05:03:00;17.37;;;10.80;;
20445;SDS011;10382;49.140;9.234;2024-03-23T05:05:26;17.80;;;10.80;;
20445;SDS011;10382;49.140;9.234;2024-03-23T05:07:53;20.13;;;11.20;;
20445;SDS011;10382;49.140;9.234;2024-03-23T05:10:18;18.90;;;12.07;;
20445;SDS011;10382;49.140;9.234;2024-03-23T05:12:45;13.93;;;10.63;;
20445;SDS011;10382;49.140;9.234;2024-03-23T05:15:13;15.10;;;11.33;;
20445;SDS011;10382;49.140;9.234;2024-03-23T05:17:39;18.00;;;11.50;;
20445;SDS011;10382;49.140;9.234;2024-03-23T05:20:07;13.77;;;9.87;;
20445;SDS011;10382;49.140;9.234;2024-03-23T05:22:34;14.77;;;11.40;;
20445;SDS011;10382;49.140;9.234;2024-03-23T05:25:02;22.63;;;12.53;;
20445;SDS011;10382;49.140;9.234;2024-03-23T05:27:30;19.80;;;12.47;;
20445;SDS011;10382;49.140;9.234;2024-03-23T05:29:57;21.60;;;11.10;;
20445;SDS011;10382;49.140;9.234;2024-03-23T05:32:25;16.50;;;10.50;;
20445;SDS011;10382;49.140;9.234;2024-03-23T05:34:51;16.17;;;9.63;;
20445;SDS011;10382;49.140;9.234;2024-03-23T05:37:21;17.60;;;11.07;;
20445;SDS011;10382;49.140;9.234;2024-03-23T05:39:48;13.60;;;8.90;;
20445;SDS011;10382;49.140;9.234;2024-03-23T05:42:15;11.60;;;8.40;;
20445;SDS011;10382;49.140;9.234;2024-03-23T05:44:43;15.07;;;9.20;;
20445;SDS011;10382;49.140;9.234;2024-03-23T05:47:09;16.50;;;9.17;;
20445;SDS011;10382;49.140;9.234;2024-03-23T05:49:39;12.73;;;8.50;;
20445;SDS011;10382;49.140;9.234;2024-03-23T05:52:06;14.20;;;9.50;;
20445;SDS011;10382;49.140;9.234;2024-03-23T05:54:33;12.73;;;7.67;;
20445;SDS011;10382;49.140;9.234;2024-03-23T05:56:59;14.97;;;8.77;;
20445;SDS011;10382;49.140;9.234;2024-03-23T05:59:26;10.10;;;7.00;;
20445;SDS011;10382;49.140;9.234;2024-03-23T06:01:52;13.07;;;7.60;;
20445;SDS011;10382;49.140;9.234;2024-03-23T06:04:19;13.73;;;6.70;;
20445;SDS011;10382;49.140;9.234;2024-03-23T06:06:48;11.53;;;5.70;;
20445;SDS011;10382;49.140;9.234;2024-03-23T06:09:15;9.03;;;6.13;;
20445;SDS011;10382;49.140;9.234;2024-03-23T06:11:40;8.00;;;6.00;;
20445;SDS011;10382;49.140;9.234;2024-03-23T06:14:07;6.50;;;4.70;;
20445;SDS011;10382;49.140;9.234;2024-03-23T06:16:33;8.83;;;5.90;;
20445;SDS011;10382;49.140;9.234;2024-03-23T06:19:00;6.67;;;4.93;;
20445;SDS011;10382;49.140;9.234;2024-03-23T06:21:28;6.93;;;5.20;;
20445;SDS011;10382;49.140;9.234;2024-03-23T06:23:57;5.43;;;4.30;;
20445;SDS011;10382;49.140;9.234;2024-03-23T06:26:22;12.37;;;6.30;;
20445;SDS011;10382;49.140;9.234;2024-03-23T06:28:49;6.53;;;4.73;;
20445;SDS011;10382;49.140;9.234;2024-03-23T06:31:15;5.03;;;4.10;;
20445;SDS011;10382;49.140;9.234;2024-03-23T06:33:43;7.27;;;4.23;;
20445;SDS011;10382;49.140;9.234;2024-03-23T06:36:09;5.90;;;4.07;;
20445;SDS011;10382;49.140;9.234;2024-03-23T06:38:36;7.50;;;4.60;;
20445;SDS011;10382;49.140;9.234;2024-03-23T06:41:04;4.73;;;3.30;;
20445;SDS011;10382;49.140;9.234;2024-03-23T06:43:31;5.30;;;3.53;;
20445;SDS011;10382;49.140;9.234;2024-03-23T06:45:57;4.23;;;3.70;;
20445;SDS011;10382;49.140;9.234;2024-03-23T06:48:24;6.03;;;3.77;;
20445;SDS011;10382;49.140;9.234;2024-03-23T06:50:55;12.07;;;4.17;;
20445;SDS011;10382;49.140;9.234;2024-03-23T06:53:22;8.03;;;3.50;;
20445;SDS011;10382;49.140;9.234;2024-03-23T06:55:49;6.30;;;3.17;;
20445;SDS011;10382;49.140;9.234;2024-03-23T06:58:18;5.80;;;4.10;;
20445;SDS011;10382;49.140;9.234;2024-03-23T07:00:45;4.00;;;3.60;;
20445;SDS011;10382;49.140;9.234;2024-03-23T07:03:12;5.40;;;3.87;;
20445;SDS011;10382;49.140;9.234;2024-03-23T07:05:37;8.23;;;4.10;;
20445;SDS011;10382;49.140;9.234;2024-03-23T07:08:05;7.77;;;5.00;;
20445;SDS011;10382;49.140;9.234;2024-03-23T07:10:31;5.70;;;4.70;;
20445;SDS011;10382;49.140;9.234;2024-03-23T07:12:58;7.93;;;5.30;;
20445;SDS011;10382;49.140;9.234;2024-03-23T07:15:25;8.57;;;4.63;;
20445;SDS011;10382;49.140;9.234;2024-03-23T07:17:52;5.90;;;3.40;;
20445;SDS011;10382;49.140;9.234;2024-03-23T07:20:18;5.27;;;3.80;;
20445;SDS011;10382;49.140;9.234;2024-03-23T07:22:45;5.47;;;3.50;;
20445;SDS011;10382;49.140;9.234;2024-03-23T07:25:11;4.73;;;3.70;;
20445;SDS011;10382;49.140;9.234;2024-03-23T07:27:38;5.10;;;3.70;;
20445;SDS011;10382;49.140;9.234;2024-03-23T07:30:04;2.40;;;2.20;;
20445;SDS011;10382;49.140;9.234;2024-03-23T07:32:33;4.00;;;2.70;;
20445;SDS011;10382;49.140;9.234;2024-03-23T07:34:59;4.23;;;2.73;;
20445;SDS011;10382;49.140;9.234;2024-03-23T07:37:26;6.00;;;3.93;;
20445;SDS011;10382;49.140;9.234;2024-03-23T07:39:52;2.77;;;2.37;;
20445;SDS011;10382;49.140;9.234;2024-03-23T07:42:19;4.23;;;3.33;;
20445;SDS011;10382;49.140;9.234;2024-03-23T07:44:45;4.10;;;2.90;;
20445;SDS011;10382;49.140;9.234;2024-03-23T07:47:12;2.80;;;2.50;;
20445;SDS011;10382;49.140;9.234;2024-03-23T07:49:40;5.10;;;3.20;;
20445;SDS011;10382;49.140;9.234;2024-03-23T07:52:06;6.30;;;2.97;;
20445;SDS011;10382;49.140;9.234;2024-03-23T07:54:34;3.40;;;3.10;;
20445;SDS011;10382;49.140;9.234;2024-03-23T07:57:00;2.70;;;2.50;;
20445;SDS011;10382;49.140;9.234;2024-03-23T07:59:26;2.50;;;2.30;;
20445;SDS011;10382;49.140;9.234;2024-03-23T08:01:53;4.20;;;2.93;;
20445;SDS011;10382;49.140;9.234;2024-03-23T08:04:20;4.30;;;3.20;;
20445;SDS011;10382;49.140;9.234;2024-03-23T08:06:47;4.23;;;3.43;;
20445;SDS011;10382;49.140;9.234;2024-03-23T08:09:14;3.43;;;2.50;;
20445;SDS011;10382;49.140;9.234;2024-03-23T08:11:40;5.90;;;3.43;;
20445;SDS011;10382;49.140;9.234;2024-03-23T08:14:09;2.40;;;1.90;;
20445;SDS011;10382;49.140;9.234;2024-03-23T08:16:35;4.30;;;3.10;;
20445;SDS011;10382;49.140;9.234;2024-03-23T08:19:02;3.57;;;2.33;;
20445;SDS011;10382;49.140;9.234;2024-03-23T08:21:28;2.83;;;2.30;;
20445;SDS011;10382;49.140;9.234;2024-03-23T08:23:57;2.00;;;1.83;;
20445;SDS011;10382;49.140;9.234;2024-03-23T08:26:23;2.70;;;1.63;;
20445;SDS011;10382;49.140;9.234;2024-03-23T08:28:50;2.43;;;2.10;;
20445;SDS011;10382;49.140;9.234;2024-03-23T08:31:15;3.67;;;2.97;;
20445;SDS011;10382;49.140;9.234;2024-03-23T08:33:42;3.90;;;2.80;;
20445;SDS011;10382;49.140;9.234;2024-03-23T08:36:09;6.43;;;3.00;;
20445;SDS011;10382;49.140;9.234;2024-03-23T08:38:39;3.57;;;2.40;;
20445;SDS011;10382;49.140;9.234;2024-03-23T08:41:06;3.63;;;2.57;;
20445;SDS011;10382;49.140;9.234;2024-03-23T08:43:35;6.37;;;2.63;;
20445;SDS011;10382;49.140;9.234;2024-03-23T08:46:05;5.37;;;2.17;;
20445;SDS011;10382;49.140;9.234;2024-03-23T08:48:32;3.30;;;2.47;;
20445;SDS011;10382;49.140;9.234;2024-03-23T08:51:00;3.10;;;2.27;;
20445;SDS011;10382;49.140;9.234;2024-03-23T08:53:27;5.93;;;3.50;;
20445;SDS011;10382;49.140;9.234;2024-03-23T08:55:54;6.90;;;3.47;;
20445;SDS011;10382;49.140;9.234;2024-03-23T08:58:23;6.63;;;3.50;;
20445;SDS011;10382;49.140;9.234;2024-03-23T09:00:49;8.17;;;2.93;;
20445;SDS011;10382;49.140;9.234;2024-03-23T09:03:15;8.53;;;3.80;;
20445;SDS011;10382;49.140;9.234;2024-03-23T09:05:42;8.10;;;3.33;;
20445;SDS011;10382;49.140;9.234;2024-03-23T09:08:08;9.30;;;3.33;;
20445;SDS011;10382;49.140;9.234;2024-03-23T09:10:38;3.73;;;3.20;;
20445;SDS011;10382;49.140;9.234;2024-03-23T09:13:04;6.13;;;3.23;;
20445;SDS011;10382;49.140;9.234;2024-03-23T09:15:32;10.23;;;3.53;;
20445;SDS011;10382;49.140;9.234;2024-03-23T09:17:59;7.83;;;3.50;;
20445;SDS011;10382;49.140;9.234;2024-03-23T09:20:26;9.00;;;3.63;;
20445;SDS011;10382;49.140;9.234;2024-03-23T09:22:52;7.40;;;3.77;;
20445;SDS011;10382;49.140;9.234;2024-03-23T09:25:19;6.70;;;3.93;;
20445;SDS011;10382;49.140;9.234;2024-03-23T09:27:45;11.37;;;4.23;;
20445;SDS011;10382;49.140;9.234;2024-03-23T09:30:13;9.00;;;3.77;;
20445;SDS011;10382;49.140;9.234;2024-03-23T09:32:41;8.23;;;3.47;;
20445;SDS011;10382;49.140;9.234;2024-03-23T09:35:08;7.47;;;2.83;;
20445;SDS011;10382;49.140;9.234;2024-03-23T09:37:34;7.37;;;4.17;;
20445;SDS011;10382;49.140;9.234;2024-03-23T09:40:01;7.47;;;3.90;;
20445;SDS011;10382;49.140;9.234;2024-03-23T09:42:28;9.83;;;3.90;;
20445;SDS011;10382;49.140;9.234;2024-03-23T09:44:55;11.20;;;3.27;;
20445;SDS011;10382;49.140;9.234;2024-03-23T09:47:23;6.80;;;3.90;;
20445;SDS011;10382;49.140;9.234;2024-03-23T09:49:52;8.33;;;4.60;;
20445;SDS011;10382;49.140;9.234;2024-03-23T09:52:18;8.60;;;3.50;;
20445;SDS011;10382;49.140;9.234;2024-03-23T09:54:45;6.90;;;3.80;;
20445;SDS011;10382;49.140;9.234;2024-03-23T09:57:11;9.60;;;3.10;;
20445;SDS011;10382;49.140;9.234;2024-03-23T09:59:38;9.50;;;3.50;;
20445;SDS011;10382;49.140;9.234;2024-03-23T10:02:04;8.90;;;3.80;;
20445;SDS011;10382;49.140;9.234;2024-03-23T10:04:38;7.83;;;3.40;;
20445;SDS011;10382;49.140;9.234;2024-03-23T10:07:12;8.03;;;3.40;;
20445;SDS011;10382;49.140;9.234;2024-03-23T10:09:40;4.90;;;3.50;;
20445;SDS011;10382;49.140;9.234;2024-03-23T10:12:09;11.70;;;4.90;;
20445;SDS011;10382;49.140;9.234;2024-03-23T10:14:38;4.83;;;3.33;;
20445;SDS011;10382;49.140;9.234;2024-03-23T10:17:14;9.53;;;4.13;;
20445;SDS011;10382;49.140;9.234;2024-03-23T10:19:42;7.70;;;3.07;;
20445;SDS011;10382;49.140;9.234;2024-03-23T10:22:09;4.47;;;3.47;;
20445;SDS011;10382;49.140;9.234;2024-03-23T10:24:40;15.10;;;5.53;;
20445;SDS011;10382;49.140;9.234;2024-03-23T10:27:06;7.83;;;4.07;;
20445;SDS011;10382;49.140;9.234;2024-03-23T10:29:33;7.00;;;3.40;;
20445;SDS011;10382;49.140;9.234;2024-03-23T10:32:09;9.87;;;3.77;;
20445;SDS011;10382;49.140;9.234;2024-03-23T10:34:37;7.07;;;3.93;;
20445;SDS011;10382;49.140;9.234;2024-03-23T10:37:03;11.17;;;4.87;;
20445;SDS011;10382;49.140;9.234;2024-03-23T10:39:31;9.73;;;4.83;;
20445;SDS011;10382;49.140;9.234;2024-03-23T10:42:01;10.27;;;5.20;;
20445;SDS011;10382;49.140;9.234;2024-03-23T10:44:29;16.23;;;9.97;;
20445;SDS011;10382;49.140;9.234;2024-03-23T10:46:56;9.70;;;5.53;;
20445;SDS011;10382;49.140;9.234;2024-03-23T10:49:26;13.10;;;4.37;;
20445;SDS011;10382;49.140;9.234;2024-03-23T10:51:54;13.10;;;5.30;;
20445;SDS011;10382;49.140;9.234;2024-03-23T10:54:23;13.27;;;4.37;;
20445;SDS011;10382;49.140;9.234;2024-03-23T10:56:50;6.80;;;3.93;;
20445;SDS011;10382;49.140;9.234;2024-03-23T10:59:22;6.00;;;4.07;;
20445;SDS011;10382;49.140;9.234;2024-03-23T11:01:56;8.37;;;3.87;;
20445;SDS011;10382;49.140;9.234;2024-03-23T11:04:29;9.50;;;3.73;;
20445;SDS011;10382;49.140;9.234;2024-03-23T11:06:56;12.00;;;5.17;;
20445;SDS011;10382;49.140;9.234;2024-03-23T11:09:38;21.00;;;4.53;;
20445;SDS011;10382;49.140;9.234;2024-03-23T11:12:14;11.23;;;3.63;;
20445;SDS011;10382;49.140;9.234;2024-03-23T11:14:53;15.13;;;5.70;;
20445;SDS011;10382;49.140;9.234;2024-03-23T11:17:20;17.93;;;5.37;;
20445;SDS011;10382;49.140;9.234;2024-03-23T11:19:54;7.90;;;3.90;;
20445;SDS011;10382;49.140;9.234;2024-03-23T11:22:40;7.17;;;4.63;;
20445;SDS011;10382;49.140;9.234;2024-03-23T11:25:13;7.50;;;3.60;;
20445;SDS011;10382;49.140;9.234;2024-03-23T11:27:41;17.80;;;4.93;;
20445;SDS011;10382;49.140;9.234;2024-03-23T11:30:16;12.80;;;4.83;;
20445;SDS011;10382;49.140;9.234;2024-03-23T11:32:44;13.07;;;5.00;;
20445;SDS011;10382;49.140;9.234;2024-03-23T11:35:11;10.67;;;4.60;;
20445;SDS011;10382;49.140;9.234;2024-03-23T11:38:04;18.73;;;6.23;;
20445;SDS011;10382;49.140;9.234;2024-03-23T11:40:34;8.63;;;3.80;;
20445;SDS011;10382;49.140;9.234;2024-03-23T11:43:02;9.17;;;5.10;;
20445;SDS011;10382;49.140;9.234;2024-03-23T11:45:33;6.40;;;3.50;;
20445;SDS011;10382;49.140;9.234;2024-03-23T11:48:02;6.07;;;3.23;;
20445;SDS011;10382;49.140;9.234;2024-03-23T11:50:29;10.85;;;4.63;;
20445;SDS011;10382;49.140;9.234;2024-03-23T11:53:09;11.23;;;5.40;;
20445;SDS011;10382;49.140;9.234;2024-03-23T11:55:41;17.03;;;5.27;;
20445;SDS011;10382;49.140;9.234;2024-03-23T11:58:08;11.80;;;4.40;;
20445;SDS011;10382;49.140;9.234;2024-03-23T12:00:35;14.43;;;5.80;;
20445;SDS011;10382;49.140;9.234;2024-03-23T12:03:03;9.15;;;4.82;;
20445;SDS011;10382;49.140;9.234;2024-03-23T12:05:29;10.63;;;4.38;;
20445;SDS011;10382;49.140;9.234;2024-03-23T12:10:43;10.23;;;4.57;;
20445;SDS011;10382;49.140;9.234;2024-03-23T12:13:11;16.08;;;5.10;;
20445;SDS011;10382;49.140;9.234;2024-03-23T12:15:38;9.93;;;4.47;;
20445;SDS011;10382;49.140;9.234;2024-03-23T12:18:08;10.55;;;4.28;;
20445;SDS011;10382;49.140;9.234;2024-03-23T12:20:34;11.38;;;4.30;;
20445;SDS011;10382;49.140;9.234;2024-03-23T12:23:06;13.75;;;5.07;;
20445;SDS011;10382;49.140;9.234;2024-03-23T12:25:33;15.50;;;5.07;;
20445;SDS011;10382;49.140;9.234;2024-03-23T12:28:00;12.25;;;5.03;;
20445;SDS011;10382;49.140;9.234;2024-03-23T12:30:26;19.35;;;5.30;;
20445;SDS011;10382;49.140;9.234;2024-03-23T12:32:55;11.57;;;4.40;;
20445;SDS011;10382;49.140;9.234;2024-03-23T12:35:20;10.18;;;4.80;;
20445;SDS011;10382;49.140;9.234;2024-03-23T12:37:47;11.07;;;4.38;;
20445;SDS011;10382;49.140;9.234;2024-03-23T12:40:14;9.43;;;4.25;;
20445;SDS011;10382;49.140;9.234;2024-03-23T12:42:40;11.10;;;4.30;;
20445;SDS011;10382;49.140;9.234;2024-03-23T12:45:07;11.07;;;4.53;;
20445;SDS011;10382;49.140;9.234;2024-03-23T12:47:34;8.75;;;4.32;;
20445;SDS011;10382;49.140;9.234;2024-03-23T12:50:02;11.50;;;5.20;;
20445;SDS011;10382;49.140;9.234;2024-03-23T12:52:29;12.25;;;5.03;;
20445;SDS011;10382;49.140;9.234;2024-03-23T12:54:55;6.10;;;3.10;;
20445;SDS011;10382;49.140;9.234;2024-03-23T12:57:23;12.70;;;5.00;;
20445;SDS011;10382;49.140;9.234;2024-03-23T12:59:49;11.70;;;4.03;;
20445;SDS011;10382;49.140;9.234;2024-03-23T13:02:17;7.70;;;3.75;;
20445;SDS011;10382;49.140;9.234;2024-03-23T13:04:44;10.27;;;4.63;;
20445;SDS011;10382;49.140;9.234;2024-03-23T13:07:13;10.27;;;3.90;;
20445;SDS011;10382;49.140;9.234;2024-03-23T13:09:39;11.00;;;4.50;;
20445;SDS011;10382;49.140;9.234;2024-03-23T13:12:06;13.32;;;4.50;;
20445;SDS011;10382;49.140;9.234;2024-03-23T13:14:32;12.80;;;4.20;;
20445;SDS011;10382;49.140;9.234;2024-03-23T13:16:59;11.68;;;4.53;;
20445;SDS011;10382;49.140;9.234;2024-03-23T13:19:26;11.90;;;4.47;;
20445;SDS011;10382;49.140;9.234;2024-03-23T13:21:55;13.20;;;4.87;;
20445;SDS011;10382;49.140;9.234;2024-03-23T13:24:24;16.80;;;4.60;;
20445;SDS011;10382;49.140;9.234;2024-03-23T13:26:51;17.45;;;4.97;;
20445;SDS011;10382;49.140;9.234;2024-03-23T13:29:18;7.97;;;3.92;;
20445;SDS011;10382;49.140;9.234;2024-03-23T13:31:45;10.90;;;4.37;;
20445;SDS011;10382;49.140;9.234;2024-03-23T13:34:11;6.33;;;4.07;;
20445;SDS011;10382;49.140;9.234;2024-03-23T13:36:38;17.23;;;3.73;;
20445;SDS011;10382;49.140;9.234;2024-03-23T13:39:04;19.23;;;8.40;;
20445;SDS011;10382;49.140;9.234;2024-03-23T13:41:38;11.20;;;4.17;;
20445;SDS011;10382;49.140;9.234;2024-03-23T13:44:05;8.30;;;4.10;;
20445;SDS011;10382;49.140;9.234;2024-03-23T13:46:31;13.03;;;4.17;;
20445;SDS011;10382;49.140;9.234;2024-03-23T13:48:57;9.90;;;5.70;;
20445;SDS011;10382;49.140;9.234;2024-03-23T13:51:25;16.50;;;5.90;;
20445;SDS011;10382;49.140;9.234;2024-03-23T13:53:52;6.77;;;3.77;;
20445;SDS011;10382;49.140;9.234;2024-03-23T13:56:19;10.60;;;5.60;;
20445;SDS011;10382;49.140;9.234;2024-03-23T13:58:47;9.43;;;4.80;;
20445;SDS011;10382;49.140;9.234;2024-03-23T14:01:14;10.43;;;4.23;;
20445;SDS011;10382;49.140;9.234;2024-03-23T14:03:40;6.93;;;4.13;;
20445;SDS011;10382;49.140;9.234;2024-03-23T14:06:08;8.20;;;4.40;;
20445;SDS011;10382;49.140;9.234;2024-03-23T14:08:34;7.07;;;2.93;;
20445;SDS011;10382;49.140;9.234;2024-03-23T14:11:04;7.67;;;2.87;;
20445;SDS011;10382;49.140;9.234;2024-03-23T14:13:30;11.00;;;4.20;;
20445;SDS011;10382;49.140;9.234;2024-03-23T14:15:59;6.43;;;3.50;;
20445;SDS011;10382;49.140;9.234;2024-03-23T14:18:25;9.23;;;4.00;;
20445;SDS011;10382;49.140;9.234;2024-03-23T14:20:52;3.90;;;2.77;;
20445;SDS011;10382;49.140;9.234;2024-03-23T14:23:23;5.67;;;2.60;;
20445;SDS011;10382;49.140;9.234;2024-03-23T14:25:52;4.23;;;2.43;;
20445;SDS011;10382;49.140;9.234;2024-03-23T14:28:19;5.70;;;3.63;;
20445;SDS011;10382;49.140;9.234;2024-03-23T14:30:47;7.37;;;3.10;;
20445;SDS011;10382;49.140;9.234;2024-03-23T14:33:14;5.47;;;3.00;;
20445;SDS011;10382;49.140;9.234;2024-03-23T14:35:41;8.57;;;3.30;;
20445;SDS011;10382;49.140;9.234;2024-03-23T14:38:07;10.75;;;3.70;;
20445;SDS011;10382;49.140;9.234;2024-03-23T14:40:34;10.40;;;3.38;;
20445;SDS011;10382;49.140;9.234;2024-03-23T14:43:00;6.10;;;3.43;;
20445;SDS011;10382;49.140;9.234;2024-03-23T14:45:27;8.57;;;2.97;;
20445;SDS011;10382;49.140;9.234;2024-03-23T14:47:53;7.35;;;3.20;;
20445;SDS011;10382;49.140;9.234;2024-03-23T14:50:21;9.70;;;3.10;;
20445;SDS011;10382;49.140;9.234;2024-03-23T14:52:47;9.45;;;3.25;;
20445;SDS011;10382;49.140;9.234;2024-03-23T14:55:16;6.75;;;3.42;;
20445;SDS011;10382;49.140;9.234;2024-03-23T14:57:42;7.28;;;3.20;;
20445;SDS011;10382;49.140;9.234;2024-03-23T15:00:09;9.38;;;3.20;;
20445;SDS011;10382;49.140;9.234;2024-03-23T15:02:36;7.50;;;2.80;;
20445;SDS011;10382;49.140;9.234;2024-03-23T15:05:03;10.07;;;2.23;;
20445;SDS011;10382;49.140;9.234;2024-03-23T15:07:30;5.60;;;2.83;;
20445;SDS011;10382;49.140;9.234;2024-03-23T15:09:57;8.00;;;3.45;;
20445;SDS011;10382;49.140;9.234;2024-03-23T15:12:23;8.75;;;3.50;;
20445;SDS011;10382;49.140;9.234;2024-03-23T15:14:50;8.05;;;3.45;;
20445;SDS011;10382;49.140;9.234;2024-03-23T15:17:16;7.68;;;3.67;;
20445;SDS011;10382;49.140;9.234;2024-03-23T15:19:43;8.63;;;3.10;;
20445;SDS011;10382;49.140;9.234;2024-03-23T15:22:09;7.90;;;3.20;;
20445;SDS011;10382;49.140;9.234;2024-03-23T15:24:37;6.93;;;2.57;;
20445;SDS011;10382;49.140;9.234;2024-03-23T15:27:03;6.45;;;3.00;;
20445;SDS011;10382;49.140;9.234;2024-03-23T15:29:33;8.68;;;3.10;;
20445;SDS011;10382;49.140;9.234;2024-03-23T15:31:59;10.07;;;3.30;;
20445;SDS011;10382;49.140;9.234;2024-03-23T15:34:26;4.97;;;2.60;;
20445;SDS011;10382;49.140;9.234;2024-03-23T15:36:53;6.03;;;2.97;;
20445;SDS011;10382;49.140;9.234;2024-03-23T15:39:20;7.43;;;3.00;;
20445;SDS011;10382;49.140;9.234;2024-03-23T15:41:48;8.30;;;2.87;;